sensor_id;sensor_type;location;lat;lon;timestamp;P1;durP1;ratioP1;P2;durP2;ratioP2
12228;SDS011;6177;52.402;9.800;2022-07-21T00:00:51;9.25;;;8.13;;
12228;SDS011;6177;52.402;9.800;2022-07-21T00:03:36;8.60;;;7.88;;
12228;SDS011;6177;52.402;9.800;2022-07-21T00:06:21;8.70;;;7.65;;
12228;SDS011;6177;52.402;9.800;2022-07-21T00:09:05;8.73;;;8.13;;
12228;SDS011;6177;52.402;9.800;2022-07-21T00:11:50;8.38;;;7.53;;
12228;SDS011;6177;52.402;9.800;2022-07-21T00:14:36;8.90;;;8.13;;
12228;SDS011;6177;52.402;9.800;2022-07-21T00:17:21;8.18;;;7.50;;
12228;SDS011;6177;52.402;9.800;2022-07-21T00:20:06;8.07;;;7.47;;
12228;SDS011;6177;52.402;9.800;2022-07-21T00:22:51;8.88;;;8.27;;
12228;SDS011;6177;52.402;9.800;2022-07-21T00:25:36;8.05;;;7.45;;
12228;SDS011;6177;52.402;9.800;2022-07-21T00:28:21;7.93;;;7.30;;
12228;SDS011;6177;52.402;9.800;2022-07-21T00:31:05;7.63;;;7.00;;
12228;SDS011;6177;52.402;9.800;2022-07-21T00:33:50;7.97;;;7.30;;
12228;SDS011;6177;52.402;9.800;2022-07-21T00:36:35;8.45;;;7.70;;
12228;SDS011;6177;52.402;9.800;2022-07-21T00:39:19;8.73;;;7.43;;
12228;SDS011;6177;52.402;9.800;2022-07-21T00:42:04;7.45;;;6.85;;
12228;SDS011;6177;52.402;9.800;2022-07-21T00:44:49;6.65;;;6.15;;
12228;SDS011;6177;52.402;9.800;2022-07-21T00:47:34;7.30;;;6.80;;
12228;SDS011;6177;52.402;9.800;2022-07-21T00:50:20;7.63;;;7.03;;
12228;SDS011;6177;52.402;9.800;2022-07-21T00:53:05;6.88;;;6.18;;
12228;SDS011;6177;52.402;9.800;2022-07-21T00:55:50;7.43;;;6.78;;
12228;SDS011;6177;52.402;9.800;2022-07-21T00:58:35;8.25;;;7.53;;
12228;SDS011;6177;52.402;9.800;2022-07-21T01:01:19;7.25;;;6.55;;
12228;SDS011;6177;52.402;9.800;2022-07-21T01:04:04;7.97;;;7.18;;
12228;SDS011;6177;52.402;9.800;2022-07-21T01:06:48;7.45;;;6.63;;
12228;SDS011;6177;52.402;9.800;2022-07-21T01:09:33;7.50;;;6.80;;
12228;SDS011;6177;52.402;9.800;2022-07-21T01:12:19;7.78;;;7.25;;
12228;SDS011;6177;52.402;9.800;2022-07-21T01:15:07;7.72;;;6.97;;
12228;SDS011;6177;52.402;9.800;2022-07-21T01:17:53;8.32;;;7.30;;
12228;SDS011;6177;52.402;9.800;2022-07-21T01:20:38;11.20;;;7.38;;
12228;SDS011;6177;52.402;9.800;2022-07-21T01:23:24;7.90;;;7.10;;
12228;SDS011;6177;52.402;9.800;2022-07-21T01:26:09;8.13;;;7.45;;
12228;SDS011;6177;52.402;9.800;2022-07-21T01:28:53;6.97;;;6.38;;
12228;SDS011;6177;52.402;9.800;2022-07-21T01:31:39;6.47;;;5.88;;
12228;SDS011;6177;52.402;9.800;2022-07-21T01:34:25;6.43;;;5.93;;
12228;SDS011;6177;52.402;9.800;2022-07-21T01:37:09;6.00;;;5.47;;
12228;SDS011;6177;52.402;9.800;2022-07-21T01:39:54;6.57;;;6.00;;
12228;SDS011;6177;52.402;9.800;2022-07-21T01:42:57;6.50;;;6.00;;
12228;SDS011;6177;52.402;9.800;2022-07-21T01:45:41;6.57;;;5.97;;
12228;SDS011;6177;52.402;9.800;2022-07-21T01:48:26;4.65;;;4.25;;
12228;SDS011;6177;52.402;9.800;2022-07-21T01:51:11;3.50;;;3.30;;
12228;SDS011;6177;52.402;9.800;2022-07-21T01:53:55;4.00;;;3.70;;
12228;SDS011;6177;52.402;9.800;2022-07-21T01:56:40;3.75;;;3.60;;
12228;SDS011;6177;52.402;9.800;2022-07-21T01:59:25;3.55;;;3.45;;
12228;SDS011;6177;52.402;9.800;2022-07-21T02:02:10;3.47;;;3.17;;
12228;SDS011;6177;52.402;9.800;2022-07-21T02:04:54;3.30;;;3.13;;
12228;SDS011;6177;52.402;9.800;2022-07-21T02:07:39;3.83;;;3.47;;
12228;SDS011;6177;52.402;9.800;2022-07-21T02:10:23;3.72;;;3.53;;
12228;SDS011;6177;52.402;9.800;2022-07-21T02:13:08;4.10;;;3.90;;
12228;SDS011;6177;52.402;9.800;2022-07-21T02:15:53;4.55;;;4.25;;
12228;SDS011;6177;52.402;9.800;2022-07-21T02:18:37;5.55;;;5.03;;
12228;SDS011;6177;52.402;9.800;2022-07-21T02:21:22;7.25;;;5.28;;
12228;SDS011;6177;52.402;9.800;2022-07-21T02:24:07;7.22;;;6.20;;
12228;SDS011;6177;52.402;9.800;2022-07-21T02:26:51;6.40;;;5.88;;
12228;SDS011;6177;52.402;9.800;2022-07-21T02:29:36;6.00;;;5.57;;
12228;SDS011;6177;52.402;9.800;2022-07-21T02:32:20;10.00;;;6.28;;
12228;SDS011;6177;52.402;9.800;2022-07-21T02:35:05;7.10;;;6.47;;
12228;SDS011;6177;52.402;9.800;2022-07-21T02:37:51;6.80;;;6.30;;
12228;SDS011;6177;52.402;9.800;2022-07-21T02:40:35;7.38;;;6.60;;
12228;SDS011;6177;52.402;9.800;2022-07-21T02:43:20;7.40;;;6.60;;
12228;SDS011;6177;52.402;9.800;2022-07-21T02:46:05;7.82;;;7.13;;
12228;SDS011;6177;52.402;9.800;2022-07-21T02:48:49;6.78;;;6.45;;
12228;SDS011;6177;52.402;9.800;2022-07-21T02:51:34;7.18;;;6.57;;
12228;SDS011;6177;52.402;9.800;2022-07-21T02:54:18;7.20;;;6.35;;
12228;SDS011;6177;52.402;9.800;2022-07-21T02:57:03;6.45;;;6.15;;
12228;SDS011;6177;52.402;9.800;2022-07-21T02:59:48;7.22;;;6.80;;
12228;SDS011;6177;52.402;9.800;2022-07-21T03:02:32;7.45;;;7.00;;
12228;SDS011;6177;52.402;9.800;2022-07-21T03:05:18;6.72;;;6.13;;
12228;SDS011;6177;52.402;9.800;2022-07-21T03:08:03;7.45;;;6.75;;
12228;SDS011;6177;52.402;9.800;2022-07-21T03:10:48;7.85;;;7.15;;
12228;SDS011;6177;52.402;9.800;2022-07-21T03:13:33;8.13;;;7.45;;
12228;SDS011;6177;52.402;9.800;2022-07-21T03:16:17;8.57;;;8.07;;
12228;SDS011;6177;52.402;9.800;2022-07-21T03:19:02;7.82;;;7.20;;
12228;SDS011;6177;52.402;9.800;2022-07-21T03:21:47;8.45;;;7.88;;
12228;SDS011;6177;52.402;9.800;2022-07-21T03:24:31;8.70;;;7.90;;
12228;SDS011;6177;52.402;9.800;2022-07-21T03:27:16;9.90;;;9.00;;
12228;SDS011;6177;52.402;9.800;2022-07-21T03:30:07;10.70;;;9.75;;
12228;SDS011;6177;52.402;9.800;2022-07-21T03:32:52;10.38;;;9.38;;
12228;SDS011;6177;52.402;9.800;2022-07-21T03:35:37;10.05;;;9.25;;
12228;SDS011;6177;52.402;9.800;2022-07-21T03:38:22;11.00;;;9.98;;
12228;SDS011;6177;52.402;9.800;2022-07-21T03:41:06;10.77;;;9.93;;
12228;SDS011;6177;52.402;9.800;2022-07-21T03:43:51;11.10;;;10.10;;
12228;SDS011;6177;52.402;9.800;2022-07-21T03:46:36;11.18;;;9.98;;
12228;SDS011;6177;52.402;9.800;2022-07-21T03:49:20;10.45;;;9.35;;
12228;SDS011;6177;52.402;9.800;2022-07-21T03:52:06;10.82;;;9.93;;
12228;SDS011;6177;52.402;9.800;2022-07-21T03:54:52;10.70;;;9.88;;
12228;SDS011;6177;52.402;9.800;2022-07-21T03:57:52;9.88;;;9.05;;
12228;SDS011;6177;52.402;9.800;2022-07-21T04:00:40;10.18;;;8.90;;
12228;SDS011;6177;52.402;9.800;2022-07-21T04:03:26;9.40;;;8.60;;
12228;SDS011;6177;52.402;9.800;2022-07-21T04:06:11;9.77;;;9.05;;
12228;SDS011;6177;52.402;9.800;2022-07-21T04:08:56;9.55;;;8.85;;
12228;SDS011;6177;52.402;9.800;2022-07-21T04:11:41;10.93;;;8.68;;
12228;SDS011;6177;52.402;9.800;2022-07-21T04:14:26;9.32;;;8.52;;
12228;SDS011;6177;52.402;9.800;2022-07-21T04:17:11;10.98;;;8.85;;
12228;SDS011;6177;52.402;9.800;2022-07-21T04:19:55;9.10;;;8.40;;
12228;SDS011;6177;52.402;9.800;2022-07-21T04:22:40;9.80;;;9.00;;
12228;SDS011;6177;52.402;9.800;2022-07-21T04:25:26;9.68;;;8.60;;
12228;SDS011;6177;52.402;9.800;2022-07-21T04:28:10;9.65;;;8.85;;
12228;SDS011;6177;52.402;9.800;2022-07-21T04:30:55;10.23;;;9.30;;
12228;SDS011;6177;52.402;9.800;2022-07-21T04:33:40;10.35;;;9.23;;
12228;SDS011;6177;52.402;9.800;2022-07-21T04:36:24;8.60;;;7.78;;
12228;SDS011;6177;52.402;9.800;2022-07-21T04:39:09;8.90;;;8.18;;
12228;SDS011;6177;52.402;9.800;2022-07-21T04:41:54;8.80;;;8.10;;
12228;SDS011;6177;52.402;9.800;2022-07-21T04:44:39;9.63;;;8.68;;
12228;SDS011;6177;52.402;9.800;2022-07-21T04:47:23;9.32;;;8.50;;
12228;SDS011;6177;52.402;9.800;2022-07-21T04:50:08;8.88;;;8.18;;
12228;SDS011;6177;52.402;9.800;2022-07-21T04:52:53;10.15;;;9.00;;
12228;SDS011;6177;52.402;9.800;2022-07-21T04:55:39;10.45;;;9.73;;
12228;SDS011;6177;52.402;9.800;2022-07-21T04:58:24;10.60;;;9.57;;
12228;SDS011;6177;52.402;9.800;2022-07-21T05:01:08;9.60;;;8.85;;
12228;SDS011;6177;52.402;9.800;2022-07-21T05:03:53;11.38;;;10.23;;
12228;SDS011;6177;52.402;9.800;2022-07-21T05:06:38;11.27;;;10.32;;
12228;SDS011;6177;52.402;9.800;2022-07-21T05:09:22;11.15;;;10.15;;
12228;SDS011;6177;52.402;9.800;2022-07-21T05:12:07;11.73;;;10.77;;
12228;SDS011;6177;52.402;9.800;2022-07-21T05:14:52;11.25;;;10.35;;
12228;SDS011;6177;52.402;9.800;2022-07-21T05:17:36;10.18;;;9.27;;
12228;SDS011;6177;52.402;9.800;2022-07-21T05:20:21;9.70;;;8.77;;
12228;SDS011;6177;52.402;9.800;2022-07-21T05:23:05;10.85;;;10.05;;
12228;SDS011;6177;52.402;9.800;2022-07-21T05:25:52;10.32;;;9.50;;
12228;SDS011;6177;52.402;9.800;2022-07-21T05:28:37;10.48;;;9.57;;
12228;SDS011;6177;52.402;9.800;2022-07-21T05:31:21;9.77;;;8.98;;
12228;SDS011;6177;52.402;9.800;2022-07-21T05:34:06;8.88;;;8.23;;
12228;SDS011;6177;52.402;9.800;2022-07-21T05:36:50;10.02;;;9.07;;
12228;SDS011;6177;52.402;9.800;2022-07-21T05:39:36;9.80;;;8.57;;
12228;SDS011;6177;52.402;9.800;2022-07-21T05:42:21;8.80;;;8.10;;
12228;SDS011;6177;52.402;9.800;2022-07-21T05:45:06;8.85;;;8.05;;
12228;SDS011;6177;52.402;9.800;2022-07-21T05:47:51;8.48;;;7.78;;
12228;SDS011;6177;52.402;9.800;2022-07-21T05:50:35;8.10;;;7.50;;
12228;SDS011;6177;52.402;9.800;2022-07-21T05:53:20;7.60;;;7.05;;
12228;SDS011;6177;52.402;9.800;2022-07-21T05:56:06;7.80;;;7.20;;
12228;SDS011;6177;52.402;9.800;2022-07-21T05:58:50;6.85;;;6.35;;
12228;SDS011;6177;52.402;9.800;2022-07-21T06:01:35;7.05;;;6.45;;
12228;SDS011;6177;52.402;9.800;2022-07-21T06:04:19;6.22;;;5.82;;
12228;SDS011;6177;52.402;9.800;2022-07-21T06:07:04;5.68;;;5.28;;
12228;SDS011;6177;52.402;9.800;2022-07-21T06:09:49;6.47;;;6.07;;
12228;SDS011;6177;52.402;9.800;2022-07-21T06:12:33;4.93;;;4.63;;
12228;SDS011;6177;52.402;9.800;2022-07-21T06:15:18;5.82;;;5.38;;
12228;SDS011;6177;52.402;9.800;2022-07-21T06:18:04;5.85;;;5.43;;
12228;SDS011;6177;52.402;9.800;2022-07-21T06:20:48;5.32;;;4.93;;
12228;SDS011;6177;52.402;9.800;2022-07-21T06:23:34;5.75;;;5.32;;
12228;SDS011;6177;52.402;9.800;2022-07-21T06:26:19;5.78;;;5.38;;
12228;SDS011;6177;52.402;9.800;2022-07-21T06:29:03;5.07;;;4.70;;
12228;SDS011;6177;52.402;9.800;2022-07-21T06:31:48;4.97;;;4.68;;
12228;SDS011;6177;52.402;9.800;2022-07-21T06:34:32;5.50;;;4.97;;
12228;SDS011;6177;52.402;9.800;2022-07-21T06:37:17;6.03;;;5.63;;
12228;SDS011;6177;52.402;9.800;2022-07-21T06:40:02;5.75;;;5.28;;
12228;SDS011;6177;52.402;9.800;2022-07-21T06:42:48;4.55;;;4.25;;
12228;SDS011;6177;52.402;9.800;2022-07-21T06:45:32;5.30;;;4.80;;
12228;SDS011;6177;52.402;9.800;2022-07-21T06:48:17;5.15;;;4.68;;
12228;SDS011;6177;52.402;9.800;2022-07-21T06:51:01;5.70;;;5.22;;
12228;SDS011;6177;52.402;9.800;2022-07-21T06:53:46;5.82;;;5.50;;
12228;SDS011;6177;52.402;9.800;2022-07-21T06:56:31;6.10;;;5.50;;
12228;SDS011;6177;52.402;9.800;2022-07-21T06:59:15;5.72;;;5.30;;
12228;SDS011;6177;52.402;9.800;2022-07-21T07:02:00;5.03;;;4.82;;
12228;SDS011;6177;52.402;9.800;2022-07-21T07:04:45;6.68;;;6.07;;
12228;SDS011;6177;52.402;9.800;2022-07-21T07:07:29;5.25;;;4.95;;
12228;SDS011;6177;52.402;9.800;2022-07-21T07:10:14;5.57;;;5.18;;
12228;SDS011;6177;52.402;9.800;2022-07-21T07:12:59;4.50;;;4.30;;
12228;SDS011;6177;52.402;9.800;2022-07-21T07:15:44;4.22;;;3.90;;
12228;SDS011;6177;52.402;9.800;2022-07-21T07:18:29;4.28;;;4.07;;
12228;SDS011;6177;52.402;9.800;2022-07-21T07:21:13;4.35;;;3.20;;
12228;SDS011;6177;52.402;9.800;2022-07-21T07:23:58;3.40;;;3.15;;
12228;SDS011;6177;52.402;9.800;2022-07-21T07:26:43;3.38;;;3.17;;
12228;SDS011;6177;52.402;9.800;2022-07-21T07:29:27;2.53;;;2.42;;
12228;SDS011;6177;52.402;9.800;2022-07-21T07:32:12;2.25;;;2.20;;
12228;SDS011;6177;52.402;9.800;2022-07-21T07:34:57;2.47;;;2.38;;
12228;SDS011;6177;52.402;9.800;2022-07-21T07:37:42;2.28;;;2.17;;
12228;SDS011;6177;52.402;9.800;2022-07-21T07:40:28;2.13;;;2.13;;
12228;SDS011;6177;52.402;9.800;2022-07-21T07:43:13;2.53;;;2.25;;
12228;SDS011;6177;52.402;9.800;2022-07-21T07:45:57;2.72;;;1.90;;
12228;SDS011;6177;52.402;9.800;2022-07-21T07:48:44;2.00;;;2.00;;
12228;SDS011;6177;52.402;9.800;2022-07-21T07:51:28;1.60;;;1.60;;
12228;SDS011;6177;52.402;9.800;2022-07-21T07:54:13;1.90;;;1.80;;
12228;SDS011;6177;52.402;9.800;2022-07-21T07:56:58;1.40;;;1.40;;
12228;SDS011;6177;52.402;9.800;2022-07-21T07:59:42;1.20;;;1.20;;
12228;SDS011;6177;52.402;9.800;2022-07-21T08:02:27;1.90;;;1.55;;
12228;SDS011;6177;52.402;9.800;2022-07-21T08:05:11;1.10;;;1.10;;
12228;SDS011;6177;52.402;9.800;2022-07-21T08:07:56;1.00;;;1.00;;
12228;SDS011;6177;52.402;9.800;2022-07-21T08:10:41;1.45;;;1.35;;
12228;SDS011;6177;52.402;9.800;2022-07-21T08:13:27;1.60;;;1.50;;
12228;SDS011;6177;52.402;9.800;2022-07-21T08:16:12;1.65;;;1.55;;
12228;SDS011;6177;52.402;9.800;2022-07-21T08:18:58;1.67;;;1.58;;
12228;SDS011;6177;52.402;9.800;2022-07-21T08:21:43;1.10;;;1.10;;
12228;SDS011;6177;52.402;9.800;2022-07-21T08:24:28;2.72;;;1.38;;
12228;SDS011;6177;52.402;9.800;2022-07-21T08:27:12;1.02;;;1.02;;
12228;SDS011;6177;52.402;9.800;2022-07-21T08:29:57;1.00;;;1.00;;
12228;SDS011;6177;52.402;9.800;2022-07-21T08:32:42;1.50;;;1.35;;
12228;SDS011;6177;52.402;9.800;2022-07-21T08:35:27;1.10;;;1.10;;
12228;SDS011;6177;52.402;9.800;2022-07-21T08:38:12;1.25;;;1.25;;
12228;SDS011;6177;52.402;9.800;2022-07-21T08:40:57;1.15;;;1.15;;
12228;SDS011;6177;52.402;9.800;2022-07-21T08:43:42;1.10;;;1.10;;
12228;SDS011;6177;52.402;9.800;2022-07-21T08:46:27;1.17;;;0.90;;
12228;SDS011;6177;52.402;9.800;2022-07-21T08:49:13;1.02;;;1.02;;
12228;SDS011;6177;52.402;9.800;2022-07-21T08:51:57;1.10;;;1.10;;
12228;SDS011;6177;52.402;9.800;2022-07-21T08:54:42;1.17;;;1.10;;
12228;SDS011;6177;52.402;9.800;2022-07-21T08:57:27;0.90;;;0.90;;
12228;SDS011;6177;52.402;9.800;2022-07-21T09:00:11;1.02;;;1.02;;
12228;SDS011;6177;52.402;9.800;2022-07-21T09:08:50;1.10;;;1.10;;
12228;SDS011;6177;52.402;9.800;2022-07-21T09:11:35;1.33;;;1.33;;
12228;SDS011;6177;52.402;9.800;2022-07-21T09:14:32;1.73;;;1.35;;
12228;SDS011;6177;52.402;9.800;2022-07-21T09:17:18;1.42;;;1.42;;
12228;SDS011;6177;52.402;9.800;2022-07-21T09:20:03;1.95;;;1.85;;
12228;SDS011;6177;52.402;9.800;2022-07-21T09:25:54;2.28;;;2.17;;
12228;SDS011;6177;52.402;9.800;2022-07-21T09:28:41;3.15;;;3.05;;
12228;SDS011;6177;52.402;9.800;2022-07-21T09:31:26;4.00;;;3.90;;
12228;SDS011;6177;52.402;9.800;2022-07-21T09:34:12;4.32;;;4.22;;
12228;SDS011;6177;52.402;9.800;2022-07-21T09:36:58;4.43;;;4.15;;
12228;SDS011;6177;52.402;9.800;2022-07-21T09:39:43;5.00;;;4.70;;
12228;SDS011;6177;52.402;9.800;2022-07-21T09:42:34;5.82;;;5.43;;
12228;SDS011;6177;52.402;9.800;2022-07-21T09:45:21;6.28;;;5.97;;
12228;SDS011;6177;52.402;9.800;2022-07-21T09:48:05;7.03;;;6.72;;
12228;SDS011;6177;52.402;9.800;2022-07-21T09:50:50;7.20;;;6.80;;
12228;SDS011;6177;52.402;9.800;2022-07-21T09:53:56;7.78;;;7.38;;
12228;SDS011;6177;52.402;9.800;2022-07-21T09:56:46;7.47;;;7.07;;
12228;SDS011;6177;52.402;9.800;2022-07-21T09:59:31;7.40;;;7.10;;
12228;SDS011;6177;52.402;9.800;2022-07-21T10:02:23;7.10;;;6.80;;
12228;SDS011;6177;52.402;9.800;2022-07-21T10:05:14;7.07;;;6.68;;
12228;SDS011;6177;52.402;9.800;2022-07-21T10:08:01;7.40;;;6.90;;
12228;SDS011;6177;52.402;9.800;2022-07-21T10:10:47;7.57;;;7.18;;
12228;SDS011;6177;52.402;9.800;2022-07-21T10:13:32;6.88;;;6.57;;
12228;SDS011;6177;52.402;9.800;2022-07-21T10:16:17;8.10;;;7.68;;
12228;SDS011;6177;52.402;9.800;2022-07-21T10:23:18;7.38;;;6.85;;
12228;SDS011;6177;52.402;9.800;2022-07-21T10:25:54;7.60;;;7.03;;
12228;SDS011;6177;52.402;9.800;2022-07-21T10:28:39;7.10;;;6.57;;
12228;SDS011;6177;52.402;9.800;2022-07-21T10:31:24;7.47;;;6.88;;
12228;SDS011;6177;52.402;9.800;2022-07-21T10:34:11;6.90;;;6.50;;
12228;SDS011;6177;52.402;9.800;2022-07-21T10:36:56;8.30;;;7.75;;
12228;SDS011;6177;52.402;9.800;2022-07-21T10:39:40;7.15;;;6.75;;
12228;SDS011;6177;52.402;9.800;2022-07-21T10:42:25;7.65;;;7.25;;
12228;SDS011;6177;52.402;9.800;2022-07-21T10:51:32;7.70;;;7.30;;
12228;SDS011;6177;52.402;9.800;2022-07-21T10:54:18;7.13;;;6.80;;
12228;SDS011;6177;52.402;9.800;2022-07-21T10:57:23;7.95;;;7.40;;
12228;SDS011;6177;52.402;9.800;2022-07-21T11:00:27;8.10;;;7.55;;
12228;SDS011;6177;52.402;9.800;2022-07-21T11:06:12;7.38;;;6.97;;
12228;SDS011;6177;52.402;9.800;2022-07-21T11:09:16;7.15;;;6.82;;
12228;SDS011;6177;52.402;9.800;2022-07-21T11:12:03;7.30;;;6.82;;
12228;SDS011;6177;52.402;9.800;2022-07-21T11:14:50;7.15;;;6.78;;
12228;SDS011;6177;52.402;9.800;2022-07-21T11:17:35;6.65;;;6.25;;
12228;SDS011;6177;52.402;9.800;2022-07-21T11:20:20;6.00;;;5.80;;
12228;SDS011;6177;52.402;9.800;2022-07-21T11:23:04;6.25;;;5.85;;
12228;SDS011;6177;52.402;9.800;2022-07-21T11:25:49;6.20;;;5.80;;
12228;SDS011;6177;52.402;9.800;2022-07-21T11:28:34;6.60;;;6.30;;
12228;SDS011;6177;52.402;9.800;2022-07-21T11:31:19;6.38;;;6.07;;
12228;SDS011;6177;52.402;9.800;2022-07-21T11:34:05;6.85;;;6.45;;
12228;SDS011;6177;52.402;9.800;2022-07-21T11:36:59;7.05;;;6.65;;
12228;SDS011;6177;52.402;9.800;2022-07-21T11:39:45;6.45;;;6.05;;
12228;SDS011;6177;52.402;9.800;2022-07-21T11:42:30;6.13;;;5.93;;
12228;SDS011;6177;52.402;9.800;2022-07-21T11:45:15;6.97;;;6.53;;
12228;SDS011;6177;52.402;9.800;2022-07-21T11:48:00;6.03;;;5.63;;
12228;SDS011;6177;52.402;9.800;2022-07-21T11:50:58;6.10;;;5.78;;
12228;SDS011;6177;52.402;9.800;2022-07-21T11:53:44;7.13;;;6.63;;
12228;SDS011;6177;52.402;9.800;2022-07-21T11:56:35;6.25;;;5.95;;
12228;SDS011;6177;52.402;9.800;2022-07-21T11:59:22;6.50;;;6.10;;
12228;SDS011;6177;52.402;9.800;2022-07-21T12:02:14;6.47;;;6.07;;
12228;SDS011;6177;52.402;9.800;2022-07-21T12:05:03;5.70;;;5.32;;
12228;SDS011;6177;52.402;9.800;2022-07-21T12:07:50;6.30;;;5.90;;
12228;SDS011;6177;52.402;9.800;2022-07-21T13:34:04;1.38;;;1.38;;
12228;SDS011;6177;52.402;9.800;2022-07-21T13:39:36;1.52;;;1.50;;
12228;SDS011;6177;52.402;9.800;2022-07-21T13:45:05;1.90;;;1.80;;
12228;SDS011;6177;52.402;9.800;2022-07-21T13:47:51;1.50;;;1.40;;
12228;SDS011;6177;52.402;9.800;2022-07-21T13:50:36;1.85;;;1.75;;
12228;SDS011;6177;52.402;9.800;2022-07-21T13:53:21;1.55;;;1.55;;
12228;SDS011;6177;52.402;9.800;2022-07-21T13:56:05;1.90;;;1.80;;
12228;SDS011;6177;52.402;9.800;2022-07-21T13:58:50;2.97;;;1.90;;
12228;SDS011;6177;52.402;9.800;2022-07-21T14:01:34;2.15;;;2.05;;
12228;SDS011;6177;52.402;9.800;2022-07-21T14:04:19;2.50;;;2.45;;
12228;SDS011;6177;52.402;9.800;2022-07-21T14:07:04;2.20;;;2.20;;
12228;SDS011;6177;52.402;9.800;2022-07-21T14:09:48;2.60;;;2.50;;
12228;SDS011;6177;52.402;9.800;2022-07-21T14:12:33;2.53;;;2.30;;
12228;SDS011;6177;52.402;9.800;2022-07-21T14:15:18;2.33;;;2.22;;
12228;SDS011;6177;52.402;9.800;2022-07-21T14:18:02;2.47;;;2.38;;
12228;SDS011;6177;52.402;9.800;2022-07-21T14:20:47;2.85;;;2.70;;
12228;SDS011;6177;52.402;9.800;2022-07-21T14:23:35;2.92;;;2.80;;
12228;SDS011;6177;52.402;9.800;2022-07-21T14:26:20;2.92;;;2.72;;
12228;SDS011;6177;52.402;9.800;2022-07-21T14:29:05;3.17;;;2.88;;
12228;SDS011;6177;52.402;9.800;2022-07-21T14:31:49;2.97;;;2.88;;
12228;SDS011;6177;52.402;9.800;2022-07-21T14:34:34;3.38;;;3.28;;
12228;SDS011;6177;52.402;9.800;2022-07-21T14:37:19;3.92;;;3.72;;
12228;SDS011;6177;52.402;9.800;2022-07-21T14:40:04;3.05;;;2.95;;
12228;SDS011;6177;52.402;9.800;2022-07-21T14:42:50;2.92;;;2.83;;
12228;SDS011;6177;52.402;9.800;2022-07-21T14:45:37;2.47;;;2.40;;
12228;SDS011;6177;52.402;9.800;2022-07-21T14:48:22;2.58;;;2.47;;
12228;SDS011;6177;52.402;9.800;2022-07-21T14:51:07;1.33;;;1.33;;
12228;SDS011;6177;52.402;9.800;2022-07-21T14:53:51;1.50;;;1.50;;
12228;SDS011;6177;52.402;9.800;2022-07-21T14:56:36;1.75;;;1.08;;
12228;SDS011;6177;52.402;9.800;2022-07-21T14:59:21;1.08;;;1.08;;
12228;SDS011;6177;52.402;9.800;2022-07-21T15:02:05;1.20;;;1.20;;
12228;SDS011;6177;52.402;9.800;2022-07-21T15:04:50;1.17;;;1.08;;
